createdAt,value
2023-01-07T00:00:04.162Z,524.74
2023-01-07T00:00:14.052Z,524.88
2023-01-07T00:00:24.197Z,524.74
2023-01-07T00:00:34.085Z,524.57
2023-01-07T00:00:44.101Z,524.69
2023-01-07T00:00:54.043Z,524.80
2023-01-07T00:01:04.052Z,524.84
2023-01-07T00:01:14.040Z,524.71
2023-01-07T00:01:24.039Z,524.68
2023-01-07T00:01:34.043Z,524.82
2023-01-07T00:01:44.084Z,524.84
2023-01-07T00:01:54.071Z,524.80
2023-01-07T00:02:04.055Z,524.50
2023-01-07T00:02:14.045Z,524.50
2023-01-07T00:02:24.133Z,524.40
2023-01-07T00:02:34.064Z,524.34
2023-01-07T00:02:44.129Z,524.50
2023-01-07T00:02:54.155Z,524.36
2023-01-07T00:03:04.124Z,524.40
2023-01-07T00:03:14.056Z,524.43
2023-01-07T00:03:24.097Z,524.42
2023-01-07T00:03:34.056Z,524.28
2023-01-07T00:03:44.155Z,524.25
2023-01-07T00:03:54.104Z,524.35
2023-01-07T00:04:04.136Z,524.29
2023-01-07T00:04:14.112Z,524.39
2023-01-07T00:04:24.052Z,524.55
2023-01-07T00:04:34.053Z,524.27
2023-01-07T00:04:44.067Z,524.42
2023-01-07T00:04:54.090Z,524.31
2023-01-07T00:05:04.058Z,524.78
2023-01-07T00:05:14.059Z,524.57
2023-01-07T00:05:24.057Z,524.60
2023-01-07T00:05:34.056Z,524.78
2023-01-07T00:05:44.067Z,524.54
2023-01-07T00:05:54.068Z,524.31
2023-01-07T00:06:04.070Z,524.74
2023-01-07T00:06:14.048Z,524.55
2023-01-07T00:06:24.066Z,524.56
2023-01-07T00:06:34.081Z,524.45
2023-01-07T00:06:44.076Z,524.53
2023-01-07T00:06:54.064Z,524.53
2023-01-07T00:07:04.074Z,524.28
2023-01-07T00:07:14.067Z,524.46
2023-01-07T00:07:24.065Z,524.78
2023-01-07T00:07:34.082Z,524.46
2023-01-07T00:07:44.077Z,524.33
2023-01-07T00:07:54.071Z,524.93
2023-01-07T00:08:04.069Z,524.39
2023-01-07T00:08:14.083Z,524.41
2023-01-07T00:08:24.079Z,524.61
2023-01-07T00:08:34.083Z,524.69
2023-01-07T00:08:44.086Z,524.68
2023-01-07T00:08:54.090Z,524.65
2023-01-07T00:09:04.074Z,524.90
2023-01-07T00:09:14.103Z,524.69
2023-01-07T00:09:24.099Z,524.60
2023-01-07T00:09:34.089Z,524.75
2023-01-07T00:09:44.071Z,524.74
2023-01-07T00:09:54.073Z,524.48
2023-01-07T00:10:04.108Z,524.48
2023-01-07T00:10:14.085Z,524.58
2023-01-07T00:10:24.093Z,524.54
2023-01-07T00:10:34.074Z,524.77
2023-01-07T00:10:44.078Z,524.55
2023-01-07T00:10:54.091Z,525.29
2023-01-07T00:11:04.085Z,524.91
2023-01-07T00:11:14.091Z,524.98
2023-01-07T00:11:24.092Z,524.85
2023-01-07T00:11:34.082Z,524.77
2023-01-07T00:11:44.103Z,524.76
2023-01-07T00:11:54.096Z,524.79
2023-01-07T00:12:04.090Z,525.11
2023-01-07T00:12:14.090Z,524.83
2023-01-07T00:12:24.094Z,525.11
2023-01-07T00:12:34.088Z,524.79
2023-01-07T00:12:44.112Z,525.01
2023-01-07T00:12:54.103Z,524.70
2023-01-07T00:13:04.094Z,524.62
2023-01-07T00:13:14.083Z,524.72
2023-01-07T00:13:24.099Z,524.92
2023-01-07T00:13:34.090Z,524.64
2023-01-07T00:13:44.095Z,524.89
2023-01-07T00:13:54.112Z,525.11
2023-01-07T00:14:04.097Z,525.02
2023-01-07T00:14:14.093Z,524.79
2023-01-07T00:14:24.101Z,525.01
2023-01-07T00:14:34.100Z,524.92
2023-01-07T00:14:44.094Z,525.04
2023-01-07T00:14:54.094Z,525.05
2023-01-07T00:15:04.092Z,525.06
2023-01-07T00:15:14.103Z,525.17
2023-01-07T00:15:24.114Z,525.23
2023-01-07T00:15:34.201Z,525.06
2023-01-07T00:15:44.171Z,525.13
2023-01-07T00:15:54.126Z,525.36
2023-01-07T00:16:04.134Z,525.22
2023-01-07T00:16:14.286Z,525.15
2023-01-07T00:16:24.210Z,525.24
2023-01-07T00:16:34.095Z,525.15
2023-01-07T00:16:44.123Z,525.16
2023-01-07T00:16:54.115Z,525.43
2023-01-07T00:17:04.109Z,525.50
2023-01-07T00:17:14.119Z,525.25
2023-01-07T00:17:24.105Z,525.60
2023-01-07T00:17:34.131Z,525.50
2023-01-07T00:17:44.114Z,525.67
2023-01-07T00:17:54.114Z,525.69
2023-01-07T00:18:04.115Z,525.54
2023-01-07T00:18:14.143Z,525.39
2023-01-07T00:18:24.112Z,525.53
2023-01-07T00:18:34.125Z,525.58
2023-01-07T00:18:44.122Z,525.51
2023-01-07T00:18:54.112Z,525.78
2023-01-07T00:19:04.123Z,525.73
2023-01-07T00:19:14.114Z,525.92
2023-01-07T00:19:24.168Z,525.74
2023-01-07T00:19:34.159Z,525.79
2023-01-07T00:19:44.119Z,525.48
2023-01-07T00:19:54.112Z,525.81
2023-01-07T00:20:04.118Z,525.72
2023-01-07T00:20:14.122Z,525.63
2023-01-07T00:20:24.114Z,525.61
2023-01-07T00:20:34.124Z,525.79
2023-01-07T00:20:44.111Z,525.79
2023-01-07T00:20:54.137Z,525.92
2023-01-07T00:21:04.146Z,525.99
2023-01-07T00:21:14.128Z,526.14
2023-01-07T00:21:24.117Z,526.03
2023-01-07T00:21:34.151Z,525.99
2023-01-07T00:21:44.145Z,525.99
2023-01-07T00:21:54.122Z,526.08
2023-01-07T00:22:04.130Z,525.52
2023-01-07T00:22:14.175Z,526.05
2023-01-07T00:22:24.123Z,526.17
2023-01-07T00:22:34.136Z,526.38
2023-01-07T00:22:44.162Z,525.80
2023-01-07T00:22:54.124Z,525.80
2023-01-07T00:23:04.177Z,525.97
2023-01-07T00:23:14.157Z,525.65
2023-01-07T00:23:24.116Z,525.99
2023-01-07T00:23:34.148Z,526.14
2023-01-07T00:23:44.145Z,526.09
2023-01-07T00:23:54.157Z,525.55
2023-01-07T00:24:04.167Z,525.96
2023-01-07T00:24:14.143Z,525.72
2023-01-07T00:24:24.139Z,525.80
2023-01-07T00:24:34.131Z,525.63
2023-01-07T00:24:44.148Z,525.61
2023-01-07T00:24:54.139Z,525.70
2023-01-07T00:25:04.184Z,525.68
2023-01-07T00:25:14.146Z,525.70
2023-01-07T00:25:24.151Z,525.70
2023-01-07T00:25:34.141Z,525.62
2023-01-07T00:25:44.138Z,525.57
2023-01-07T00:25:54.152Z,525.40
2023-01-07T00:26:04.161Z,525.62
2023-01-07T00:26:14.185Z,526.18
2023-01-07T00:26:24.153Z,526.17
2023-01-07T00:26:34.156Z,526.21
2023-01-07T00:26:44.143Z,525.93
2023-01-07T00:26:54.964Z,525.84
2023-01-07T00:27:04.148Z,526.00
2023-01-07T00:27:14.154Z,526.02
2023-01-07T00:27:24.163Z,526.08
2023-01-07T00:27:34.157Z,525.99
2023-01-07T00:27:44.163Z,526.21
2023-01-07T00:27:54.165Z,526.06
2023-01-07T00:28:04.153Z,526.03
2023-01-07T00:28:14.169Z,526.11
2023-01-07T00:28:24.156Z,526.07
2023-01-07T00:28:34.170Z,525.86
2023-01-07T00:28:44.166Z,526.05
2023-01-07T00:28:54.165Z,526.39
2023-01-07T00:29:04.164Z,526.07
2023-01-07T00:29:14.161Z,526.37
2023-01-07T00:29:24.973Z,526.29
2023-01-07T00:29:34.164Z,526.10
2023-01-07T00:29:44.163Z,526.25
2023-01-07T00:29:54.160Z,526.19
2023-01-07T00:30:04.167Z,526.17
2023-01-07T00:30:14.185Z,526.45
2023-01-07T00:30:24.164Z,526.20
2023-01-07T00:30:34.154Z,526.21
2023-01-07T00:30:44.176Z,526.26
2023-01-07T00:30:54.173Z,526.43
2023-01-07T00:31:04.238Z,526.23
2023-01-07T00:31:14.226Z,526.24
2023-01-07T00:31:24.254Z,526.08
2023-01-07T00:31:34.204Z,526.20
2023-01-07T00:31:44.243Z,526.04
2023-01-07T00:31:54.188Z,526.18
2023-01-07T00:32:04.176Z,526.33
2023-01-07T00:32:14.172Z,526.27
2023-01-07T00:32:24.170Z,526.31
2023-01-07T00:32:34.174Z,526.16
2023-01-07T00:32:44.182Z,526.20
2023-01-07T00:32:54.174Z,526.59
2023-01-07T00:33:04.206Z,526.58
2023-01-07T00:33:14.172Z,526.20
2023-01-07T00:33:24.176Z,526.28
2023-01-07T00:33:34.175Z,526.24
2023-01-07T00:33:44.189Z,526.15
2023-01-07T00:33:54.192Z,526.25
2023-01-07T00:34:04.246Z,526.27
2023-01-07T00:34:14.226Z,526.26
2023-01-07T00:34:24.193Z,526.26
2023-01-07T00:34:34.197Z,526.16
2023-01-07T00:34:44.195Z,526.31
2023-01-07T00:34:54.191Z,526.08
2023-01-07T00:35:04.210Z,526.34
2023-01-07T00:35:14.211Z,526.16
2023-01-07T00:35:24.187Z,526.05
2023-01-07T00:35:34.219Z,526.04
2023-01-07T00:35:44.189Z,526.07
2023-01-07T00:35:54.193Z,526.00
2023-01-07T00:36:04.188Z,526.02
2023-01-07T00:36:14.192Z,525.90
2023-01-07T00:36:24.213Z,525.80
2023-01-07T00:36:34.193Z,525.96
2023-01-07T00:36:44.239Z,525.95
2023-01-07T00:36:54.219Z,526.11
2023-01-07T00:37:04.212Z,526.37
2023-01-07T00:37:14.196Z,526.24
2023-01-07T00:37:24.204Z,526.39
2023-01-07T00:37:34.216Z,526.55
2023-01-07T00:37:44.966Z,526.87
2023-01-07T00:37:54.222Z,526.61
2023-01-07T00:38:04.194Z,526.55
2023-01-07T00:38:14.198Z,526.33
2023-01-07T00:38:24.207Z,526.50
2023-01-07T00:38:34.203Z,526.39
2023-01-07T00:38:44.205Z,526.47
2023-01-07T00:38:54.208Z,526.49
2023-01-07T00:39:04.210Z,526.45
2023-01-07T00:39:14.203Z,526.63
2023-01-07T00:39:24.958Z,526.41
2023-01-07T00:39:34.215Z,526.32
2023-01-07T00:39:44.200Z,526.39
2023-01-07T00:39:54.223Z,526.27
2023-01-07T00:40:04.241Z,526.35
2023-01-07T00:40:14.202Z,526.41
2023-01-07T00:40:24.223Z,526.36
2023-01-07T00:40:34.261Z,526.38
2023-01-07T00:40:44.211Z,526.42
2023-01-07T00:40:54.243Z,526.44
2023-01-07T00:41:04.237Z,526.34
2023-01-07T00:41:14.215Z,526.27
2023-01-07T00:41:24.221Z,526.17
2023-01-07T00:41:34.228Z,526.37
2023-01-07T00:41:44.222Z,526.35
2023-01-07T00:41:54.221Z,526.33
2023-01-07T00:42:04.231Z,526.20
2023-01-07T00:42:14.240Z,526.13
2023-01-07T00:42:24.220Z,526.22
2023-01-07T00:42:34.231Z,526.32
2023-01-07T00:42:44.220Z,526.33
2023-01-07T00:42:54.217Z,526.45
2023-01-07T00:43:04.233Z,526.16
2023-01-07T00:43:14.218Z,526.39
2023-01-07T00:43:24.224Z,526.65
2023-01-07T00:43:34.244Z,526.42
2023-01-07T00:43:44.233Z,526.58
2023-01-07T00:43:54.223Z,526.54
2023-01-07T00:44:04.247Z,526.51
2023-01-07T00:44:14.224Z,526.49
2023-01-07T00:44:24.275Z,526.28
2023-01-07T00:44:34.241Z,526.46
2023-01-07T00:44:44.232Z,526.44
2023-01-07T00:44:54.229Z,526.47
2023-01-07T00:45:04.219Z,526.58
2023-01-07T00:45:14.285Z,526.42
2023-01-07T00:45:24.230Z,526.37
2023-01-07T00:45:34.251Z,526.40
2023-01-07T00:45:44.239Z,526.45
2023-01-07T00:45:54.333Z,526.35
2023-01-07T00:46:04.244Z,526.39
2023-01-07T00:46:14.272Z,526.34
2023-01-07T00:46:24.278Z,526.29
2023-01-07T00:46:34.294Z,526.12
2023-01-07T00:46:44.269Z,526.30
2023-01-07T00:46:54.289Z,526.29
2023-01-07T00:47:04.236Z,526.42
2023-01-07T00:47:14.237Z,526.41
2023-01-07T00:47:24.267Z,526.61
2023-01-07T00:47:34.248Z,526.68
2023-01-07T00:47:44.249Z,526.89
2023-01-07T00:47:54.243Z,526.97
2023-01-07T00:48:04.254Z,526.94
2023-01-07T00:48:14.260Z,526.97
2023-01-07T00:48:24.263Z,526.84
2023-01-07T00:48:34.264Z,526.51
2023-01-07T00:48:44.260Z,526.55
2023-01-07T00:48:54.260Z,526.43
2023-01-07T00:49:04.249Z,526.50
2023-01-07T00:49:14.248Z,526.43
2023-01-07T00:49:24.250Z,526.76
2023-01-07T00:49:34.252Z,526.84
2023-01-07T00:49:44.267Z,526.95
2023-01-07T00:49:54.236Z,526.41
2023-01-07T00:50:04.250Z,526.59
2023-01-07T00:50:14.300Z,526.66
2023-01-07T00:50:24.250Z,527.43
2023-01-07T00:50:34.260Z,526.82
2023-01-07T00:50:44.269Z,526.70
2023-01-07T00:50:54.259Z,526.55
2023-01-07T00:51:04.271Z,526.39
2023-01-07T00:51:14.271Z,526.44
2023-01-07T00:51:24.252Z,526.71
2023-01-07T00:51:34.261Z,526.58
2023-01-07T00:51:44.259Z,526.70
2023-01-07T00:51:54.274Z,526.65
2023-01-07T00:52:04.258Z,526.60
2023-01-07T00:52:14.279Z,526.50
2023-01-07T00:52:24.254Z,526.76
2023-01-07T00:52:34.277Z,526.60
2023-01-07T00:52:44.267Z,526.56
2023-01-07T00:52:54.311Z,526.65
2023-01-07T00:53:04.255Z,526.57
2023-01-07T00:53:14.262Z,526.56
2023-01-07T00:53:24.274Z,526.65
2023-01-07T00:53:34.271Z,526.43
2023-01-07T00:53:44.272Z,526.56
2023-01-07T00:53:54.263Z,526.44
2023-01-07T00:54:04.263Z,526.37
2023-01-07T00:54:14.283Z,526.44
2023-01-07T00:54:24.271Z,526.49
2023-01-07T00:54:34.292Z,526.37
2023-01-07T00:54:44.284Z,526.29
2023-01-07T00:54:54.280Z,526.32
2023-01-07T00:55:04.284Z,526.42
2023-01-07T00:55:14.275Z,526.67
2023-01-07T00:55:24.266Z,526.52
2023-01-07T00:55:34.273Z,526.40
2023-01-07T00:55:44.259Z,526.49
2023-01-07T00:55:54.280Z,526.26
2023-01-07T00:56:04.288Z,526.42
2023-01-07T00:56:14.300Z,526.51
2023-01-07T00:56:24.289Z,526.73
2023-01-07T00:56:34.278Z,526.71
2023-01-07T00:56:44.306Z,526.47
2023-01-07T00:56:54.289Z,526.49
2023-01-07T00:57:04.272Z,526.66
2023-01-07T00:57:14.290Z,526.56
2023-01-07T00:57:24.290Z,526.76
2023-01-07T00:57:34.277Z,526.62
2023-01-07T00:57:44.297Z,526.46
2023-01-07T00:57:54.306Z,526.36
2023-01-07T00:58:04.326Z,526.26
2023-01-07T00:58:14.278Z,526.27
2023-01-07T00:58:24.317Z,526.31
2023-01-07T00:58:34.301Z,526.24
2023-01-07T00:58:44.286Z,526.05
2023-01-07T00:58:54.292Z,526.13
2023-01-07T00:59:04.289Z,526.19
2023-01-07T00:59:14.302Z,526.22
2023-01-07T00:59:24.310Z,526.12
2023-01-07T00:59:34.316Z,526.31
2023-01-07T00:59:44.298Z,526.01
2023-01-07T00:59:54.295Z,526.18
2023-01-07T01:00:04.297Z,526.09
2023-01-07T01:00:14.296Z,526.24
2023-01-07T01:00:24.299Z,526.21
2023-01-07T01:00:34.362Z,526.21
2023-01-07T01:00:44.291Z,526.07
2023-01-07T01:00:54.409Z,526.84
2023-01-07T01:01:04.558Z,526.54
2023-01-07T01:01:14.433Z,526.81
2023-01-07T01:01:24.437Z,526.65
2023-01-07T01:01:34.417Z,526.18
2023-01-07T01:01:44.438Z,526.19
2023-01-07T01:01:54.378Z,526.22
2023-01-07T01:02:04.389Z,526.29
2023-01-07T01:02:14.411Z,526.14
2023-01-07T01:02:24.390Z,526.09
2023-01-07T01:02:34.384Z,526.14
2023-01-07T01:02:44.385Z,526.14
2023-01-07T01:02:54.382Z,526.14
2023-01-07T01:03:04.311Z,526.19
2023-01-07T01:03:14.330Z,526.17
2023-01-07T01:03:24.321Z,526.33
2023-01-07T01:03:34.304Z,526.34
2023-01-07T01:03:44.320Z,526.34
2023-01-07T01:03:54.311Z,526.29
2023-01-07T01:04:04.388Z,526.28
2023-01-07T01:04:14.312Z,526.20
2023-01-07T01:04:24.316Z,526.16
2023-01-07T01:04:34.321Z,526.36
2023-01-07T01:04:44.326Z,526.08
2023-01-07T01:04:54.322Z,526.54
2023-01-07T01:05:04.332Z,526.36
2023-01-07T01:05:14.325Z,527.08
2023-01-07T01:05:24.320Z,526.43
2023-01-07T01:05:34.322Z,526.33
2023-01-07T01:05:44.331Z,526.35
2023-01-07T01:05:54.330Z,526.34
2023-01-07T01:06:04.333Z,526.38
2023-01-07T01:06:14.347Z,526.15
2023-01-07T01:06:24.325Z,526.20
2023-01-07T01:06:34.351Z,526.20
2023-01-07T01:06:44.348Z,526.22
2023-01-07T01:06:54.330Z,526.28
2023-01-07T01:07:04.350Z,526.18
2023-01-07T01:07:14.328Z,526.38
2023-01-07T01:07:24.319Z,526.55
2023-01-07T01:07:34.323Z,526.40
2023-01-07T01:07:44.325Z,526.41
2023-01-07T01:07:54.338Z,526.40
2023-01-07T01:08:04.324Z,526.47
2023-01-07T01:08:14.346Z,526.43
2023-01-07T01:08:24.326Z,526.47
2023-01-07T01:08:34.346Z,526.49
2023-01-07T01:08:44.348Z,526.47
2023-01-07T01:08:54.333Z,526.43
2023-01-07T01:09:04.330Z,526.38
2023-01-07T01:09:14.334Z,526.40
2023-01-07T01:09:24.357Z,526.39
2023-01-07T01:09:34.337Z,526.37
2023-01-07T01:09:44.343Z,526.63
2023-01-07T01:09:54.340Z,526.67
2023-01-07T01:10:04.364Z,526.49
2023-01-07T01:10:14.346Z,526.32
2023-01-07T01:10:24.364Z,526.64
2023-01-07T01:10:34.339Z,526.46
2023-01-07T01:10:44.338Z,526.10
2023-01-07T01:10:54.370Z,526.51
2023-01-07T01:11:04.340Z,526.38
2023-01-07T01:11:14.343Z,526.43
2023-01-07T01:11:24.372Z,526.29
2023-01-07T01:11:34.358Z,526.26
2023-01-07T01:11:44.354Z,526.27
2023-01-07T01:11:54.355Z,526.42
2023-01-07T01:12:04.345Z,526.34
2023-01-07T01:12:14.347Z,526.47
2023-01-07T01:12:24.346Z,526.33
2023-01-07T01:12:34.350Z,526.66
2023-01-07T01:12:44.371Z,526.89
2023-01-07T01:12:54.347Z,526.45
2023-01-07T01:13:04.375Z,526.24
2023-01-07T01:13:15.450Z,526.27
2023-01-07T01:13:24.369Z,526.22
2023-01-07T01:13:34.371Z,526.28
2023-01-07T01:13:44.369Z,526.02
2023-01-07T01:13:54.375Z,525.97
2023-01-07T01:14:04.364Z,526.63
2023-01-07T01:14:14.367Z,526.27
2023-01-07T01:14:24.386Z,526.47
2023-01-07T01:14:34.369Z,526.42
2023-01-07T01:14:44.355Z,526.18
2023-01-07T01:14:54.357Z,526.37
2023-01-07T01:15:04.385Z,526.37
2023-01-07T01:15:14.369Z,526.44
2023-01-07T01:15:24.360Z,526.32
2023-01-07T01:15:34.357Z,526.43
2023-01-07T01:15:44.442Z,526.40
2023-01-07T01:15:54.376Z,526.58
2023-01-07T01:16:04.394Z,526.50
2023-01-07T01:16:14.536Z,526.56
2023-01-07T01:16:24.424Z,526.74
2023-01-07T01:16:34.439Z,526.66
2023-01-07T01:16:44.375Z,526.72
2023-01-07T01:16:54.382Z,526.97
2023-01-07T01:17:04.360Z,527.04
2023-01-07T01:17:14.376Z,526.82
2023-01-07T01:17:24.362Z,526.91
2023-01-07T01:17:34.404Z,526.79
2023-01-07T01:17:44.367Z,526.50
2023-01-07T01:17:54.389Z,526.86
2023-01-07T01:18:04.370Z,527.30
2023-01-07T01:18:14.370Z,527.01
2023-01-07T01:18:24.370Z,527.16
2023-01-07T01:18:34.379Z,527.06
2023-01-07T01:18:44.378Z,526.99
2023-01-07T01:18:54.393Z,526.80
2023-01-07T01:19:04.379Z,526.97
2023-01-07T01:19:14.376Z,526.85
2023-01-07T01:19:24.384Z,526.73
2023-01-07T01:19:34.374Z,526.84
2023-01-07T01:19:44.374Z,526.95
2023-01-07T01:19:54.397Z,527.14
2023-01-07T01:20:04.381Z,526.79
2023-01-07T01:20:14.384Z,527.06
2023-01-07T01:20:24.383Z,526.96
2023-01-07T01:20:34.387Z,526.98
2023-01-07T01:20:44.396Z,526.98
2023-01-07T01:20:54.388Z,526.81
2023-01-07T01:21:04.388Z,526.93
2023-01-07T01:21:14.451Z,526.92
2023-01-07T01:21:24.387Z,526.99
2023-01-07T01:21:34.398Z,526.94
2023-01-07T01:21:44.389Z,527.19
2023-01-07T01:21:54.382Z,527.06
2023-01-07T01:22:04.384Z,526.96
2023-01-07T01:22:14.417Z,526.87
2023-01-07T01:22:24.402Z,527.40
2023-01-07T01:22:34.393Z,527.47
2023-01-07T01:22:44.411Z,527.37
2023-01-07T01:22:54.399Z,527.16
2023-01-07T01:23:04.399Z,527.28
2023-01-07T01:23:14.401Z,526.99
2023-01-07T01:23:24.401Z,527.40
2023-01-07T01:23:34.408Z,527.37
2023-01-07T01:23:44.432Z,527.29
2023-01-07T01:23:54.395Z,527.16
2023-01-07T01:24:04.421Z,527.17
2023-01-07T01:24:14.432Z,527.18
2023-01-07T01:24:24.405Z,527.04
2023-01-07T01:24:34.416Z,527.60
2023-01-07T01:24:44.426Z,527.50
2023-01-07T01:24:54.408Z,526.95
2023-01-07T01:25:04.404Z,527.26
2023-01-07T01:25:14.411Z,527.41
2023-01-07T01:25:24.403Z,527.30
2023-01-07T01:25:34.402Z,527.32
2023-01-07T01:25:44.400Z,527.18
2023-01-07T01:25:54.416Z,527.22
2023-01-07T01:26:04.410Z,527.21
2023-01-07T01:26:14.410Z,527.13
2023-01-07T01:26:24.420Z,526.73
2023-01-07T01:26:34.410Z,527.54
2023-01-07T01:26:44.398Z,527.37
2023-01-07T01:26:54.424Z,527.38
2023-01-07T01:27:04.411Z,527.46
2023-01-07T01:27:14.427Z,527.22
2023-01-07T01:27:24.416Z,527.16
2023-01-07T01:27:34.419Z,527.21
2023-01-07T01:27:44.411Z,527.03
2023-01-07T01:27:54.414Z,527.17
2023-01-07T01:28:04.438Z,527.21
2023-01-07T01:28:14.444Z,527.21
2023-01-07T01:28:24.402Z,527.19
2023-01-07T01:28:34.426Z,527.37
2023-01-07T01:28:44.429Z,527.14
2023-01-07T01:28:54.431Z,527.14
2023-01-07T01:29:04.420Z,527.05
2023-01-07T01:29:14.415Z,527.05
2023-01-07T01:29:24.433Z,527.17
2023-01-07T01:29:34.426Z,527.15
2023-01-07T01:29:44.424Z,527.12
2023-01-07T01:29:54.430Z,527.10
2023-01-07T01:30:04.425Z,526.87
2023-01-07T01:30:14.422Z,526.62
2023-01-07T01:30:24.428Z,526.82
2023-01-07T01:30:34.426Z,527.18
2023-01-07T01:30:44.454Z,527.14
2023-01-07T01:30:54.430Z,527.13
2023-01-07T01:31:04.471Z,527.03
2023-01-07T01:31:14.519Z,527.17
2023-01-07T01:31:24.587Z,527.10
2023-01-07T01:31:34.552Z,527.04
2023-01-07T01:31:44.461Z,527.29
2023-01-07T01:31:54.494Z,527.38
2023-01-07T01:32:04.434Z,527.41
2023-01-07T01:32:14.446Z,527.32
2023-01-07T01:32:24.445Z,527.51
2023-01-07T01:32:34.434Z,527.44
2023-01-07T01:32:44.443Z,527.21
2023-01-07T01:32:54.435Z,527.45
2023-01-07T01:33:04.449Z,527.08
2023-01-07T01:33:14.435Z,527.25
2023-01-07T01:33:24.436Z,527.35
2023-01-07T01:33:34.432Z,527.21
2023-01-07T01:33:44.433Z,527.39
2023-01-07T01:33:54.436Z,527.44
2023-01-07T01:34:04.440Z,527.19
2023-01-07T01:34:14.456Z,527.19
2023-01-07T01:34:24.438Z,527.56
2023-01-07T01:34:34.468Z,527.17
2023-01-07T01:34:44.451Z,527.43
2023-01-07T01:34:54.444Z,527.50
2023-01-07T01:35:04.462Z,527.15
2023-01-07T01:35:14.442Z,527.27
2023-01-07T01:35:24.442Z,527.04
2023-01-07T01:35:34.444Z,527.17
2023-01-07T01:35:44.446Z,527.54
2023-01-07T01:35:54.442Z,527.59
2023-01-07T01:36:04.453Z,527.40
2023-01-07T01:36:14.457Z,527.30
2023-01-07T01:36:24.471Z,527.53
2023-01-07T01:36:34.477Z,527.30
2023-01-07T01:36:44.446Z,527.36
2023-01-07T01:36:54.445Z,527.12
2023-01-07T01:37:04.471Z,527.51
2023-01-07T01:37:14.474Z,527.26
2023-01-07T01:37:24.444Z,527.17
2023-01-07T01:37:34.446Z,527.19
2023-01-07T01:37:44.453Z,527.07
2023-01-07T01:37:54.477Z,527.10
2023-01-07T01:38:04.450Z,527.05
2023-01-07T01:38:14.451Z,526.99
2023-01-07T01:38:24.464Z,527.17
2023-01-07T01:38:34.455Z,527.23
2023-01-07T01:38:44.476Z,527.17
2023-01-07T01:38:54.468Z,527.27
2023-01-07T01:39:04.450Z,527.68
2023-01-07T01:39:14.459Z,527.13
2023-01-07T01:39:24.459Z,527.14
2023-01-07T01:39:34.473Z,527.04
2023-01-07T01:39:44.461Z,526.94
2023-01-07T01:39:54.458Z,527.14
2023-01-07T01:40:04.455Z,527.12
2023-01-07T01:40:14.457Z,527.38
2023-01-07T01:40:24.455Z,527.16
2023-01-07T01:40:34.460Z,527.28
2023-01-07T01:40:44.467Z,527.19
2023-01-07T01:40:54.465Z,527.31
2023-01-07T01:41:04.484Z,527.32
2023-01-07T01:41:14.466Z,527.34
2023-01-07T01:41:24.472Z,527.42
2023-01-07T01:41:34.473Z,527.31
2023-01-07T01:41:44.477Z,527.32
2023-01-07T01:41:54.478Z,527.42
2023-01-07T01:42:04.490Z,527.43
2023-01-07T01:42:14.467Z,527.48
2023-01-07T01:42:24.490Z,527.27
2023-01-07T01:42:34.477Z,527.35
2023-01-07T01:42:44.473Z,527.33
2023-01-07T01:42:54.475Z,527.34
2023-01-07T01:43:04.476Z,527.57
2023-01-07T01:43:14.476Z,527.50
2023-01-07T01:43:24.477Z,527.69
2023-01-07T01:43:34.475Z,527.72
2023-01-07T01:43:44.499Z,527.43
2023-01-07T01:43:54.483Z,527.50
2023-01-07T01:44:04.480Z,527.46
2023-01-07T01:44:14.491Z,527.40
2023-01-07T01:44:24.489Z,527.44
2023-01-07T01:44:34.496Z,527.38
2023-01-07T01:44:44.486Z,527.32
2023-01-07T01:44:54.501Z,527.67
2023-01-07T01:45:04.507Z,527.36
2023-01-07T01:45:14.479Z,527.99
2023-01-07T01:45:24.479Z,527.51
2023-01-07T01:45:34.491Z,527.94
2023-01-07T01:45:44.492Z,527.62
2023-01-07T01:45:54.496Z,527.53
2023-01-07T01:46:04.493Z,528.19
2023-01-07T01:46:14.566Z,527.75
2023-01-07T01:46:24.600Z,527.90
2023-01-07T01:46:34.680Z,527.94
2023-01-07T01:46:44.537Z,527.80
2023-01-07T01:46:54.573Z,527.82
2023-01-07T01:47:04.544Z,527.52
2023-01-07T01:47:14.495Z,527.59
2023-01-07T01:47:24.510Z,527.64
2023-01-07T01:47:34.489Z,527.46
2023-01-07T01:47:44.490Z,527.30
2023-01-07T01:47:54.509Z,527.46
2023-01-07T01:48:04.490Z,527.42
2023-01-07T01:48:14.488Z,527.25
2023-01-07T01:48:24.515Z,527.16
2023-01-07T01:48:34.496Z,527.11
2023-01-07T01:48:44.502Z,527.28
2023-01-07T01:48:54.512Z,527.14
2023-01-07T01:49:04.496Z,527.26
2023-01-07T01:49:14.494Z,527.10
2023-01-07T01:49:24.495Z,527.02
2023-01-07T01:49:34.496Z,526.98
2023-01-07T01:49:44.523Z,527.19
2023-01-07T01:49:54.499Z,527.09
2023-01-07T01:50:04.578Z,527.17
2023-01-07T01:50:14.503Z,527.22
2023-01-07T01:50:24.521Z,527.05
2023-01-07T01:50:34.499Z,527.02
2023-01-07T01:50:44.511Z,527.21
2023-01-07T01:50:54.515Z,527.27
2023-01-07T01:51:04.524Z,527.33
2023-01-07T01:51:14.489Z,527.21
2023-01-07T01:51:24.502Z,527.20
2023-01-07T01:51:34.511Z,527.16
2023-01-07T01:51:44.529Z,527.13
2023-01-07T01:51:54.503Z,527.29
2023-01-07T01:52:04.506Z,527.37
2023-01-07T01:52:14.513Z,527.29
2023-01-07T01:52:24.504Z,527.25
2023-01-07T01:52:34.513Z,527.13
2023-01-07T01:52:45.715Z,527.03
2023-01-07T01:52:54.518Z,527.22
2023-01-07T01:53:04.508Z,527.15
2023-01-07T01:53:14.530Z,527.50
2023-01-07T01:53:24.513Z,528.31
2023-01-07T01:53:34.516Z,527.90
2023-01-07T01:53:44.517Z,527.42
2023-01-07T01:53:54.525Z,527.36
2023-01-07T01:54:04.523Z,527.43
2023-01-07T01:54:14.519Z,527.18
2023-01-07T01:54:24.516Z,527.89
2023-01-07T01:54:34.518Z,527.15
2023-01-07T01:54:44.542Z,526.99
2023-01-07T01:54:54.525Z,527.22
2023-01-07T01:55:04.539Z,527.46
2023-01-07T01:55:14.539Z,527.24
2023-01-07T01:55:24.531Z,527.17
2023-01-07T01:55:34.545Z,527.37
2023-01-07T01:55:44.527Z,527.52
2023-01-07T01:55:54.524Z,526.95
2023-01-07T01:56:04.537Z,526.91
2023-01-07T01:56:14.536Z,527.38
2023-01-07T01:56:24.542Z,527.19
2023-01-07T01:56:34.545Z,527.34
2023-01-07T01:56:44.531Z,526.98
2023-01-07T01:56:54.545Z,527.60
2023-01-07T01:57:04.533Z,527.52
2023-01-07T01:57:14.537Z,527.78
2023-01-07T01:57:24.538Z,527.36
2023-01-07T01:57:34.537Z,527.26
2023-01-07T01:57:44.531Z,527.54
2023-01-07T01:57:54.532Z,527.40
2023-01-07T01:58:04.547Z,527.54
2023-01-07T01:58:15.552Z,527.51
2023-01-07T01:58:24.551Z,527.65
2023-01-07T01:58:34.546Z,527.16
2023-01-07T01:58:44.552Z,527.47
2023-01-07T01:58:54.568Z,527.37
2023-01-07T01:59:04.546Z,527.57
2023-01-07T01:59:14.556Z,527.61
2023-01-07T01:59:24.571Z,527.34
2023-01-07T01:59:34.554Z,527.43
2023-01-07T01:59:44.560Z,527.11
2023-01-07T01:59:54.556Z,527.15
2023-01-07T02:00:04.551Z,527.20
2023-01-07T02:00:14.550Z,528.01
2023-01-07T02:00:24.550Z,527.42
2023-01-07T02:00:34.574Z,527.34
2023-01-07T02:00:44.647Z,527.58
2023-01-07T02:00:54.624Z,527.15
2023-01-07T02:01:04.647Z,527.71
2023-01-07T02:01:14.649Z,527.56
2023-01-07T02:01:24.683Z,527.53
2023-01-07T02:01:34.686Z,527.78
2023-01-07T02:01:44.878Z,527.15
2023-01-07T02:01:54.655Z,527.35
2023-01-07T02:02:04.822Z,527.16
2023-01-07T02:02:14.607Z,527.31
2023-01-07T02:02:24.561Z,527.08
2023-01-07T02:02:34.652Z,527.20
2023-01-07T02:02:44.613Z,527.02
2023-01-07T02:02:54.567Z,526.88
2023-01-07T02:03:04.557Z,527.25
2023-01-07T02:03:14.601Z,527.13
2023-01-07T02:03:24.558Z,527.35
2023-01-07T02:03:34.556Z,527.79
2023-01-07T02:03:44.592Z,527.52
2023-01-07T02:03:54.559Z,527.33
2023-01-07T02:04:04.565Z,527.10
2023-01-07T02:04:14.576Z,527.69
2023-01-07T02:04:24.586Z,527.39
2023-01-07T02:04:34.572Z,527.20
2023-01-07T02:04:44.563Z,527.42